Time;durP1;ratioP1;P1;durP2;ratioP2;P2;SDS_P1;SDS_P2;PMS_P1;PMS_P2;Temp;Humidity;BMP_temperature;BMP_pressure;BME280_temperature;BME280_humidity;BME280_pressure;Samples;Min_cycle;Max_cycle;Signal;HPM_P1;HPM_P2
2023/08/26 00:00:38;;;;;;;8.15;5.40;;;;;;;;;;4995481;28;20026;-77
2023/08/26 00:03:04;;;;;;;8.75;6.13;;;;;;;;;;5013092;28;20026;-77
2023/08/26 00:05:29;;;;;;;11.77;6.70;;;;;;;;;;4995443;28;20044;-76
2023/08/26 00:07:55;;;;;;;10.88;6.53;;;;;;;;;;4995041;28;20480;-77
2023/08/26 00:10:20;;;;;;;9.13;6.15;;;;;;;;;;4995393;28;20021;-76
2023/08/26 00:12:45;;;;;;;9.32;5.78;;;;;;;;;;5011633;28;20058;-77
2023/08/26 00:15:11;;;;;;;12.13;6.38;;;;;;;;;;4995095;28;20036;-77
2023/08/26 00:17:36;;;;;;;11.07;7.13;;;;;;;;;;4995676;28;20026;-77
2023/08/26 00:20:05;;;;;;;11.27;6.55;;;;;;;;;;4995565;28;20101;-77
2023/08/26 00:22:31;;;;;;;11.60;7.07;;;;;;;;;;4979294;28;20174;-77
2023/08/26 00:24:56;;;;;;;14.05;8.18;;;;;;;;;;4995307;28;20120;-76
2023/08/26 00:27:21;;;;;;;9.93;6.75;;;;;;;;;;4995478;28;20045;-77
2023/08/26 00:29:47;;;;;;;10.02;7.30;;;;;;;;;;4990751;28;20022;-77
2023/08/26 00:32:12;;;;;;;12.27;7.75;;;;;;;;;;4993408;28;20563;-77
2023/08/26 00:34:38;;;;;;;10.32;6.88;;;;;;;;;;4974996;28;20022;-76
2023/08/26 00:37:03;;;;;;;13.00;6.68;;;;;;;;;;4993820;28;20061;-76
2023/08/26 00:39:28;;;;;;;9.48;7.13;;;;;;;;;;4992314;28;20034;-76
2023/08/26 00:41:54;;;;;;;8.73;5.88;;;;;;;;;;4991508;28;20029;-77
2023/08/26 00:44:19;;;;;;;10.02;5.82;;;;;;;;;;5012575;28;20025;-77
2023/08/26 00:46:45;;;;;;;10.43;5.85;;;;;;;;;;4979139;28;20395;-77
2023/08/26 00:49:10;;;;;;;10.80;6.60;;;;;;;;;;4994873;28;20030;-77
2023/08/26 00:51:37;;;;;;;10.50;6.68;;;;;;;;;;4979224;28;20116;-77
2023/08/26 00:54:05;;;;;;;11.38;5.78;;;;;;;;;;4995353;28;20469;-77
2023/08/26 00:56:31;;;;;;;14.73;7.88;;;;;;;;;;4995705;28;20033;-77
2023/08/26 00:58:57;;;;;;;10.98;6.80;;;;;;;;;;4978632;28;20025;-77
2023/08/26 01:01:24;;;;;;;8.77;6.25;;;;;;;;;;5014308;28;20089;-77
2023/08/26 01:03:49;;;;;;;12.20;6.82;;;;;;;;;;4999049;28;20026;-77
2023/08/26 01:06:15;;;;;;;11.20;6.85;;;;;;;;;;5016393;28;20036;-77
2023/08/26 01:08:42;;;;;;;9.25;5.93;;;;;;;;;;5016006;28;20040;-77
2023/08/26 01:11:25;;;;;;;13.85;7.05;;;;;;;;;;5016305;28;20026;-77
2023/08/26 01:14:08;;;;;;;14.15;6.57;;;;;;;;;;4982833;28;20410;-77
2023/08/26 01:16:35;;;;;;;10.63;6.60;;;;;;;;;;4998616;28;20029;-77
2023/08/26 01:19:01;;;;;;;11.35;7.82;;;;;;;;;;4998466;28;20097;-77
2023/08/26 01:21:32;;;;;;;8.60;6.13;;;;;;;;;;4981797;28;20054;-77
2023/08/26 01:23:58;;;;;;;13.60;7.70;;;;;;;;;;4982118;28;20091;-77
2023/08/26 01:26:23;;;;;;;14.35;7.82;;;;;;;;;;4998547;28;20483;-77
2023/08/26 01:28:48;;;;;;;13.30;7.32;;;;;;;;;;4998250;28;20026;-77
2023/08/26 01:31:15;;;;;;;15.77;7.30;;;;;;;;;;4998582;28;20026;-77
2023/08/26 01:33:44;;;;;;;8.82;6.32;;;;;;;;;;4998032;28;20032;-77
2023/08/26 01:36:14;;;;;;;11.18;6.78;;;;;;;;;;4997970;28;20036;-78
2023/08/26 01:38:40;;;;;;;13.98;7.38;;;;;;;;;;4998378;28;20025;-77
2023/08/26 01:41:07;;;;;;;12.73;8.13;;;;;;;;;;4998023;28;20028;-77
2023/08/26 01:43:33;;;;;;;13.75;7.00;;;;;;;;;;4981980;28;20441;-77
2023/08/26 01:45:58;;;;;;;12.00;6.65;;;;;;;;;;4997511;28;20060;-77
2023/08/26 01:48:23;;;;;;;11.23;6.30;;;;;;;;;;5015389;28;20108;-77
2023/08/26 01:50:49;;;;;;;11.32;7.70;;;;;;;;;;5014963;28;20046;-77
2023/08/26 01:53:14;;;;;;;11.93;6.07;;;;;;;;;;4997917;28;20026;-77
2023/08/26 01:55:39;;;;;;;21.17;8.27;;;;;;;;;;4996994;28;20507;-77
2023/08/26 01:58:05;;;;;;;9.80;5.88;;;;;;;;;;4997805;28;20041;-77
2023/08/26 02:00:30;;;;;;;9.05;5.20;;;;;;;;;;4981018;28;20033;-77
2023/08/26 02:02:55;;;;;;;8.80;5.57;;;;;;;;;;4997604;28;20030;-77
2023/08/26 02:05:20;;;;;;;9.63;5.38;;;;;;;;;;4997492;28;20026;-77
2023/08/26 02:07:46;;;;;;;9.82;6.53;;;;;;;;;;4980891;28;20057;-77
2023/08/26 02:10:12;;;;;;;10.18;5.93;;;;;;;;;;4997202;28;20026;-77
2023/08/26 02:12:37;;;;;;;10.07;5.47;;;;;;;;;;5014089;28;20018;-77
2023/08/26 02:15:03;;;;;;;9.25;4.97;;;;;;;;;;4980921;28;20076;-77
2023/08/26 02:17:29;;;;;;;8.88;5.47;;;;;;;;;;4980836;28;20433;-77
2023/08/26 02:19:54;;;;;;;12.15;6.43;;;;;;;;;;5014968;28;20099;-77
2023/08/26 02:22:19;;;;;;;10.52;5.88;;;;;;;;;;4980583;28;20117;-77
2023/08/26 02:24:45;;;;;;;9.75;5.75;;;;;;;;;;4980263;28;20112;-77
2023/08/26 02:27:11;;;;;;;11.43;7.40;;;;;;;;;;4996912;28;20029;-77
2023/08/26 02:29:36;;;;;;;8.55;5.47;;;;;;;;;;4997038;28;20369;-76
2023/08/26 02:32:01;;;;;;;8.85;6.63;;;;;;;;;;4997089;28;20026;-77
2023/08/26 02:34:27;;;;;;;11.35;5.68;;;;;;;;;;5014846;28;20100;-77
2023/08/26 02:36:52;;;;;;;11.18;5.72;;;;;;;;;;5013973;28;20021;-77
2023/08/26 02:39:18;;;;;;;11.57;7.10;;;;;;;;;;4996696;28;20026;-77
2023/08/26 02:41:43;;;;;;;10.10;5.95;;;;;;;;;;4980422;28;20033;-77
2023/08/26 02:44:08;;;;;;;8.00;5.15;;;;;;;;;;4996440;28;20103;-77
2023/08/26 02:46:33;;;;;;;9.70;5.70;;;;;;;;;;4996769;28;20121;-77
2023/08/26 02:49:01;;;;;;;11.75;6.53;;;;;;;;;;4980165;28;20484;-77
2023/08/26 02:51:26;;;;;;;11.75;7.47;;;;;;;;;;4996849;28;20033;-77
2023/08/26 02:53:51;;;;;;;10.50;6.07;;;;;;;;;;4979566;28;20022;-77
2023/08/26 02:56:16;;;;;;;13.05;7.93;;;;;;;;;;5014435;28;20022;-77
2023/08/26 02:58:42;;;;;;;15.77;7.57;;;;;;;;;;5013576;28;20033;-77
2023/08/26 03:01:07;;;;;;;13.48;8.45;;;;;;;;;;4996705;28;20029;-77
2023/08/26 03:03:32;;;;;;;14.40;7.03;;;;;;;;;;4996121;28;20052;-77
2023/08/26 03:05:58;;;;;;;9.80;7.03;;;;;;;;;;4996453;28;20111;-77
2023/08/26 03:08:24;;;;;;;13.30;6.95;;;;;;;;;;4996215;28;20387;-77
2023/08/26 03:11:00;;;;;;;15.15;8.30;;;;;;;;;;4995887;28;20032;-77
2023/08/26 03:13:25;;;;;;;12.00;8.15;;;;;;;;;;4996237;28;20080;-77
2023/08/26 03:15:50;;;;;;;15.57;7.93;;;;;;;;;;4996423;28;20021;-77
2023/08/26 03:18:16;;;;;;;9.00;5.80;;;;;;;;;;4996477;28;20036;-77
2023/08/26 03:20:41;;;;;;;10.27;6.00;;;;;;;;;;5013632;28;20033;-77
2023/08/26 03:23:06;;;;;;;14.90;7.82;;;;;;;;;;5013234;28;20443;-77
2023/08/26 03:25:36;;;;;;;13.50;7.93;;;;;;;;;;4996045;28;20044;-77
2023/08/26 03:28:02;;;;;;;15.40;9.25;;;;;;;;;;4979584;28;20472;-77
2023/08/26 03:30:27;;;;;;;11.85;6.90;;;;;;;;;;4996115;28;20080;-77
2023/08/26 03:32:52;;;;;;;14.23;8.85;;;;;;;;;;4996084;28;20074;-77
2023/08/26 03:35:18;;;;;;;10.45;6.65;;;;;;;;;;4995151;28;20025;-77
2023/08/26 03:37:43;;;;;;;14.85;7.90;;;;;;;;;;4995878;28;20034;-77
2023/08/26 03:40:09;;;;;;;13.07;7.75;;;;;;;;;;5013371;28;20022;-77
2023/08/26 03:42:34;;;;;;;10.93;6.90;;;;;;;;;;4995714;28;20488;-77
2023/08/26 03:44:59;;;;;;;11.48;6.32;;;;;;;;;;4995328;28;20083;-77
2023/08/26 03:47:24;;;;;;;10.85;5.95;;;;;;;;;;4979719;28;20104;-77
2023/08/26 03:49:50;;;;;;;11.35;5.85;;;;;;;;;;4996039;28;20025;-77
2023/08/26 03:52:16;;;;;;;12.82;6.80;;;;;;;;;;4995723;28;20102;-77
2023/08/26 03:54:41;;;;;;;11.98;6.93;;;;;;;;;;5013371;28;20064;-77
2023/08/26 03:57:06;;;;;;;13.82;7.10;;;;;;;;;;4978897;28;20445;-77
2023/08/26 03:59:32;;;;;;;13.00;7.60;;;;;;;;;;5013144;28;20022;-77
2023/08/26 04:01:57;;;;;;;10.10;6.00;;;;;;;;;;5013338;28;20026;-77
2023/08/26 04:04:22;;;;;;;8.40;5.75;;;;;;;;;;4979240;28;20057;-77
2023/08/26 04:06:47;;;;;;;9.80;6.85;;;;;;;;;;4995370;28;20022;-77
2023/08/26 04:09:13;;;;;;;10.70;6.20;;;;;;;;;;5012996;28;20033;-77
2023/08/26 04:11:38;;;;;;;14.90;7.82;;;;;;;;;;4995576;28;20022;-77
2023/08/26 04:14:03;;;;;;;13.60;7.78;;;;;;;;;;4994894;28;20080;-77
2023/08/26 04:16:29;;;;;;;14.15;8.15;;;;;;;;;;5011807;28;20556;-77
2023/08/26 04:18:54;;;;;;;13.68;9.30;;;;;;;;;;4995032;28;20484;-77
2023/08/26 04:21:19;;;;;;;15.25;9.25;;;;;;;;;;4994907;28;20416;-76
2023/08/26 04:23:45;;;;;;;13.85;8.05;;;;;;;;;;4994784;28;20032;-77
2023/08/26 04:26:10;;;;;;;19.02;8.80;;;;;;;;;;4979273;28;20037;-77
2023/08/26 04:28:35;;;;;;;15.20;8.73;;;;;;;;;;5012772;28;20030;-77
2023/08/26 04:31:01;;;;;;;19.48;9.95;;;;;;;;;;4995734;28;20025;-78
2023/08/26 04:33:26;;;;;;;21.38;9.95;;;;;;;;;;4995356;28;20021;-76
2023/08/26 04:35:52;;;;;;;20.75;10.05;;;;;;;;;;4995136;28;20045;-74
2023/08/26 04:38:17;;;;;;;23.63;7.82;;;;;;;;;;4999079;28;20401;-68
2023/08/26 04:40:43;;;;;;;9.95;5.32;;;;;;;;;;5016297;28;20052;-70
2023/08/26 04:43:10;;;;;;;7.78;4.20;;;;;;;;;;4998973;28;20025;-70
2023/08/26 04:45:36;;;;;;;7.78;2.90;;;;;;;;;;5016314;28;20476;-69
2023/08/26 04:48:02;;;;;;;6.70;2.65;;;;;;;;;;4999205;28;20021;-69
2023/08/26 04:50:28;;;;;;;6.80;2.45;;;;;;;;;;5015419;28;20137;-70
2023/08/26 04:52:53;;;;;;;5.13;2.67;;;;;;;;;;4998931;28;20131;-70
2023/08/26 04:55:19;;;;;;;2.97;1.80;;;;;;;;;;4982007;28;20030;-70
2023/08/26 04:57:44;;;;;;;4.07;2.20;;;;;;;;;;5016282;28;20372;-70
2023/08/26 05:00:10;;;;;;;2.72;1.90;;;;;;;;;;5015471;28;20022;-70
2023/08/26 05:02:39;;;;;;;3.42;2.38;;;;;;;;;;4998353;28;20187;-71
2023/08/26 05:05:04;;;;;;;4.18;1.92;;;;;;;;;;4998598;28;20116;-73
2023/08/26 05:07:31;;;;;;;2.58;2.13;;;;;;;;;;4998581;28;20022;-73
2023/08/26 05:09:56;;;;;;;4.60;2.60;;;;;;;;;;5015577;28;20057;-73
2023/08/26 05:12:22;;;;;;;4.28;2.75;;;;;;;;;;5015532;28;20049;-71
2023/08/26 05:14:48;;;;;;;5.13;2.80;;;;;;;;;;5015723;28;20022;-71
2023/08/26 05:17:13;;;;;;;5.72;3.33;;;;;;;;;;5015727;28;20132;-72
2023/08/26 05:19:38;;;;;;;5.03;3.38;;;;;;;;;;5016149;28;20093;-73
2023/08/26 05:22:04;;;;;;;5.03;3.42;;;;;;;;;;5015417;28;20072;-72
2023/08/26 05:24:30;;;;;;;4.80;2.90;;;;;;;;;;5017604;23;20069;-76
2023/08/26 05:26:55;;;;;;;5.90;3.50;;;;;;;;;;5034972;28;20025;-76
2023/08/26 05:29:21;;;;;;;7.60;3.33;;;;;;;;;;5038918;28;20059;-75
2023/08/26 05:31:46;;;;;;;5.13;3.63;;;;;;;;;;5056314;28;20029;-75
2023/08/26 05:34:11;;;;;;;6.45;3.75;;;;;;;;;;5055618;28;20021;-76
2023/08/26 05:36:36;;;;;;;6.05;3.08;;;;;;;;;;5038110;28;20100;-76
2023/08/26 05:39:02;;;;;;;6.80;3.50;;;;;;;;;;5055571;28;20391;-76
2023/08/26 05:41:27;;;;;;;4.93;3.60;;;;;;;;;;5056351;28;20529;-75
2023/08/26 05:43:52;;;;;;;7.80;3.67;;;;;;;;;;5021781;28;20021;-76
2023/08/26 05:46:18;;;;;;;4.13;2.45;;;;;;;;;;5055884;28;20605;-76
2023/08/26 05:48:43;;;;;;;5.80;3.05;;;;;;;;;;5055854;28;20498;-76
2023/08/26 05:51:08;;;;;;;5.03;2.88;;;;;;;;;;5037456;28;20036;-77
2023/08/26 05:53:33;;;;;;;4.38;2.45;;;;;;;;;;5056474;28;20025;-76
2023/08/26 05:55:59;;;;;;;6.28;3.05;;;;;;;;;;5037728;28;20075;-76
2023/08/26 05:58:24;;;;;;;3.78;2.58;;;;;;;;;;5055318;28;20059;-76
2023/08/26 06:00:50;;;;;;;3.55;2.28;;;;;;;;;;5037780;28;20029;-75
2023/08/26 06:03:15;;;;;;;5.65;2.58;;;;;;;;;;5037804;28;20104;-76
2023/08/26 06:05:41;;;;;;;3.05;2.10;;;;;;;;;;5037429;28;20031;-75
2023/08/26 06:08:06;;;;;;;5.70;2.63;;;;;;;;;;5037655;28;20031;-76
2023/08/26 06:10:31;;;;;;;3.88;2.70;;;;;;;;;;5055513;28;20025;-76
2023/08/26 06:12:57;;;;;;;5.20;2.38;;;;;;;;;;5037591;28;20475;-76
2023/08/26 06:15:22;;;;;;;3.58;2.30;;;;;;;;;;5055347;28;20021;-76
2023/08/26 06:17:47;;;;;;;2.92;2.40;;;;;;;;;;5037818;28;20029;-75
2023/08/26 06:20:13;;;;;;;3.30;2.08;;;;;;;;;;5054873;28;20025;-75
2023/08/26 06:22:38;;;;;;;3.33;2.17;;;;;;;;;;5037382;28;20485;-75
2023/08/26 06:25:04;;;;;;;3.90;2.50;;;;;;;;;;5050314;23;20575;-75
2023/08/26 06:27:29;;;;;;;7.00;2.67;;;;;;;;;;5035058;28;20037;-76
2023/08/26 06:29:56;;;;;;;4.80;2.55;;;;;;;;;;5035257;28;20120;-76
2023/08/26 06:32:22;;;;;;;5.93;2.58;;;;;;;;;;5035184;28;20022;-76
2023/08/26 06:34:47;;;;;;;4.55;2.75;;;;;;;;;;5033702;28;20021;-76
2023/08/26 06:37:13;;;;;;;4.10;2.20;;;;;;;;;;5017971;28;20466;-76
2023/08/26 06:39:39;;;;;;;5.78;2.80;;;;;;;;;;5034999;28;20100;-76
2023/08/26 06:42:04;;;;;;;3.17;2.38;;;;;;;;;;5017377;28;20100;-76
2023/08/26 06:44:30;;;;;;;3.58;2.13;;;;;;;;;;5017454;28;20380;-76
2023/08/26 06:46:55;;;;;;;3.45;2.28;;;;;;;;;;5034427;28;20044;-75
2023/08/26 06:49:20;;;;;;;3.38;2.60;;;;;;;;;;5034997;28;20021;-75
2023/08/26 06:51:45;;;;;;;4.07;2.50;;;;;;;;;;5035681;28;20095;-75
2023/08/26 06:54:11;;;;;;;6.95;3.05;;;;;;;;;;5034733;28;20104;-75
2023/08/26 06:56:36;;;;;;;5.75;2.53;;;;;;;;;;5017411;28;20024;-75
2023/08/26 06:59:02;;;;;;;4.75;1.98;;;;;;;;;;5016085;28;20449;-76
2023/08/26 07:01:27;;;;;;;5.30;3.03;;;;;;;;;;5016976;28;20049;-74
2023/08/26 07:03:53;;;;;;;4.95;2.67;;;;;;;;;;5016680;28;20029;-74
2023/08/26 07:06:24;;;;;;;4.32;2.45;;;;;;;;;;5035081;28;20032;-74
2023/08/26 07:08:50;;;;;;;4.85;2.95;;;;;;;;;;5033785;28;20033;-73
2023/08/26 07:11:15;;;;;;;4.82;2.75;;;;;;;;;;5016550;28;20025;-73
2023/08/26 07:13:40;;;;;;;4.25;2.53;;;;;;;;;;5034632;28;20049;-74
2023/08/26 07:16:05;;;;;;;5.82;3.42;;;;;;;;;;5033201;28;20545;-73
2023/08/26 07:18:31;;;;;;;6.07;3.03;;;;;;;;;;5016950;28;20032;-73
2023/08/26 07:20:56;;;;;;;3.88;2.53;;;;;;;;;;5034636;28;20056;-73
2023/08/26 07:23:21;;;;;;;4.22;3.25;;;;;;;;;;5022990;28;20034;-73
2023/08/26 07:25:47;;;;;;;4.63;2.47;;;;;;;;;;5017131;28;20029;-73
2023/08/26 07:28:12;;;;;;;4.80;2.72;;;;;;;;;;5035367;28;20036;-73
2023/08/26 07:30:39;;;;;;;4.40;2.97;;;;;;;;;;5035912;28;20128;-73
2023/08/26 07:33:04;;;;;;;6.85;3.13;;;;;;;;;;5016917;28;20018;-73
2023/08/26 07:35:29;;;;;;;6.38;3.22;;;;;;;;;;5017210;28;20176;-73
2023/08/26 07:37:55;;;;;;;7.38;3.60;;;;;;;;;;5034018;28;20021;-73
2023/08/26 07:40:23;;;;;;;4.50;2.88;;;;;;;;;;5033928;28;20505;-73
2023/08/26 07:42:48;;;;;;;6.68;3.63;;;;;;;;;;5016585;28;20108;-74
2023/08/26 07:45:13;;;;;;;5.93;4.13;;;;;;;;;;5033165;28;20065;-74
2023/08/26 07:47:40;;;;;;;5.45;3.13;;;;;;;;;;5016091;28;20460;-73
2023/08/26 07:50:05;;;;;;;6.07;3.03;;;;;;;;;;5016051;28;20029;-73
2023/08/26 07:52:31;;;;;;;10.63;2.97;;;;;;;;;;5016042;28;20404;-73
2023/08/26 07:54:56;;;;;;;6.85;3.40;;;;;;;;;;5033707;28;20484;-73
2023/08/26 07:57:21;;;;;;;5.72;3.38;;;;;;;;;;5015844;28;20022;-73
2023/08/26 07:59:47;;;;;;;4.38;3.08;;;;;;;;;;4999191;28;20364;-73
2023/08/26 08:02:12;;;;;;;5.68;3.55;;;;;;;;;;5016107;28;20025;-73
2023/08/26 08:04:37;;;;;;;5.35;3.53;;;;;;;;;;5015917;28;20032;-73
2023/08/26 08:07:03;;;;;;;8.05;3.88;;;;;;;;;;5033332;28;20033;-73
2023/08/26 08:09:28;;;;;;;6.32;3.53;;;;;;;;;;4998780;28;20064;-73
2023/08/26 08:11:53;;;;;;;9.20;3.75;;;;;;;;;;5018066;28;20442;-73
2023/08/26 08:14:19;;;;;;;9.25;3.58;;;;;;;;;;5019881;28;20033;-73
2023/08/26 08:16:44;;;;;;;7.70;3.78;;;;;;;;;;5037506;28;20021;-73
2023/08/26 08:19:09;;;;;;;6.78;3.63;;;;;;;;;;5003199;28;20438;-76
2023/08/26 08:21:34;;;;;;;5.55;3.33;;;;;;;;;;5019956;28;20025;-75
2023/08/26 08:24:00;;;;;;;5.50;3.33;;;;;;;;;;5025692;23;20042;-75
2023/08/26 08:26:25;;;;;;;8.25;2.85;;;;;;;;;;5019682;28;20411;-74
2023/08/26 08:28:51;;;;;;;4.88;3.10;;;;;;;;;;5019770;28;20029;-74
2023/08/26 08:31:16;;;;;;;4.93;3.13;;;;;;;;;;5019652;28;20021;-74
2023/08/26 08:33:41;;;;;;;5.25;3.33;;;;;;;;;;5037385;28;20025;-74
2023/08/26 08:36:07;;;;;;;4.00;2.50;;;;;;;;;;5036240;28;20029;-74
2023/08/26 08:38:32;;;;;;;4.95;2.78;;;;;;;;;;5037025;28;20033;-75
2023/08/26 08:40:58;;;;;;;3.83;2.67;;;;;;;;;;5017933;28;20024;-74
2023/08/26 08:43:24;;;;;;;5.93;3.22;;;;;;;;;;5036964;28;20044;-73
2023/08/26 08:45:50;;;;;;;6.30;3.03;;;;;;;;;;5019093;28;20013;-72
2023/08/26 08:48:17;;;;;;;4.50;2.88;;;;;;;;;;5019291;28;20075;-73
2023/08/26 08:50:42;;;;;;;4.07;2.70;;;;;;;;;;5036850;28;20032;-73
2023/08/26 08:53:08;;;;;;;6.55;2.65;;;;;;;;;;5019139;28;20029;-73
2023/08/26 08:55:33;;;;;;;5.30;2.67;;;;;;;;;;5036604;28;20017;-73
2023/08/26 08:57:59;;;;;;;6.97;2.65;;;;;;;;;;5019102;28;20055;-73
2023/08/26 09:00:25;;;;;;;4.50;3.50;;;;;;;;;;5019155;28;20108;-75
2023/08/26 09:02:51;;;;;;;4.90;2.80;;;;;;;;;;5018681;28;20047;-75
2023/08/26 09:05:17;;;;;;;6.57;2.53;;;;;;;;;;5019087;28;20475;-75
2023/08/26 09:07:43;;;;;;;3.92;2.70;;;;;;;;;;5019036;28;20025;-75
2023/08/26 09:10:11;;;;;;;4.35;2.80;;;;;;;;;;5018940;28;20029;-74
2023/08/26 09:12:37;;;;;;;4.72;2.60;;;;;;;;;;5018921;28;20033;-75
2023/08/26 09:15:03;;;;;;;6.45;2.67;;;;;;;;;;5018840;28;20048;-75
2023/08/26 09:17:32;;;;;;;3.92;2.67;;;;;;;;;;5036654;28;20025;-75
2023/08/26 09:20:00;;;;;;;3.25;1.98;;;;;;;;;;5019300;28;20388;-75
2023/08/26 09:22:27;;;;;;;4.00;2.70;;;;;;;;;;5018133;28;20024;-76
2023/08/26 09:25:00;;;;;;;3.92;2.35;;;;;;;;;;5034584;28;20103;-75
2023/08/26 09:27:25;;;;;;;3.95;2.13;;;;;;;;;;5018877;28;20022;-75
2023/08/26 09:29:51;;;;;;;3.35;1.90;;;;;;;;;;5018767;28;20411;-75
2023/08/26 09:32:39;;;;;;;5.72;2.50;;;;;;;;;;5018678;28;20018;-75
2023/08/26 09:35:12;;;;;;;5.68;2.10;;;;;;;;;;5018458;28;20112;-75
2023/08/26 09:37:39;;;;;;;3.85;1.98;;;;;;;;;;5035785;28;20029;-75
2023/08/26 09:40:05;;;;;;;7.32;1.95;;;;;;;;;;5018203;28;20672;-75
2023/08/26 09:42:31;;;;;;;3.83;1.60;;;;;;;;;;5018552;28;20072;-75
2023/08/26 09:44:57;;;;;;;3.00;1.77;;;;;;;;;;5036025;28;20029;-76
2023/08/26 09:47:27;;;;;;;2.75;1.67;;;;;;;;;;5018521;28;20101;-75
2023/08/26 09:49:52;;;;;;;3.97;1.88;;;;;;;;;;5018257;28;20510;-75
2023/08/26 09:52:17;;;;;;;7.80;2.08;;;;;;;;;;5035356;28;20025;-75
2023/08/26 09:54:44;;;;;;;3.72;1.60;;;;;;;;;;5035663;28;20052;-75
2023/08/26 09:57:11;;;;;;;6.05;2.75;;;;;;;;;;5018331;28;20025;-75
2023/08/26 09:59:36;;;;;;;3.78;1.90;;;;;;;;;;5018373;28;20175;-75
2023/08/26 10:02:03;;;;;;;4.82;1.92;;;;;;;;;;5017679;28;20540;-75
2023/08/26 10:04:33;;;;;;;4.82;1.40;;;;;;;;;;5034727;28;20400;-75
2023/08/26 10:06:59;;;;;;;3.47;1.88;;;;;;;;;;5034388;28;20021;-75
2023/08/26 10:09:43;;;;;;;3.40;1.42;;;;;;;;;;5001530;28;20084;-75
2023/08/26 10:12:33;;;;;;;4.22;1.58;;;;;;;;;;5033935;28;20026;-75
2023/08/26 10:15:01;;;;;;;2.25;1.65;;;;;;;;;;5017660;28;20495;-75
2023/08/26 10:17:29;;;;;;;2.78;1.73;;;;;;;;;;5034135;28;20116;-75
2023/08/26 10:19:55;;;;;;;3.88;1.75;;;;;;;;;;5034410;28;20105;-75
2023/08/26 10:22:20;;;;;;;5.00;1.70;;;;;;;;;;5017409;28;20029;-76
2023/08/26 10:24:46;;;;;;;3.05;1.67;;;;;;;;;;5035516;23;20037;-75
2023/08/26 10:27:11;;;;;;;4.03;1.83;;;;;;;;;;5034226;28;20040;-75
2023/08/26 10:29:37;;;;;;;4.47;1.30;;;;;;;;;;5035707;28;20486;-75
2023/08/26 10:32:19;;;;;;;3.13;1.88;;;;;;;;;;5033529;28;20549;-76
2023/08/26 10:34:55;;;;;;;3.20;1.88;;;;;;;;;;5016818;28;20021;-76
2023/08/26 10:37:23;;;;;;;4.80;1.90;;;;;;;;;;5017382;28;20049;-76
2023/08/26 10:39:48;;;;;;;5.35;2.10;;;;;;;;;;5017411;28;20104;-76
2023/08/26 10:42:16;;;;;;;2.60;1.77;;;;;;;;;;5034954;28;20168;-75
2023/08/26 10:44:46;;;;;;;2.88;2.10;;;;;;;;;;5017518;28;20030;-76
2023/08/26 10:47:12;;;;;;;4.53;2.10;;;;;;;;;;5034914;28;20028;-76
2023/08/26 10:49:37;;;;;;;3.50;1.83;;;;;;;;;;5016837;28;20392;-75
2023/08/26 10:52:21;;;;;;;2.72;1.70;;;;;;;;;;5017146;28;20041;-76
2023/08/26 10:54:47;;;;;;;4.15;1.92;;;;;;;;;;5017183;28;20040;-75
2023/08/26 10:57:12;;;;;;;3.38;1.63;;;;;;;;;;5016799;28;20021;-76
2023/08/26 10:59:40;;;;;;;3.65;2.05;;;;;;;;;;5017231;28;20034;-75
2023/08/26 11:02:07;;;;;;;4.38;1.85;;;;;;;;;;5017043;28;20026;-76
2023/08/26 11:04:34;;;;;;;2.78;2.03;;;;;;;;;;5000504;28;20034;-76
2023/08/26 11:06:59;;;;;;;5.88;3.90;;;;;;;;;;5033692;28;20080;-76
2023/08/26 11:09:25;;;;;;;3.42;2.10;;;;;;;;;;5017371;28;20045;-75
2023/08/26 11:11:50;;;;;;;4.72;1.85;;;;;;;;;;5034463;28;20022;-76
2023/08/26 11:14:15;;;;;;;4.22;2.13;;;;;;;;;;5017274;28;20099;-75
2023/08/26 11:16:41;;;;;;;3.08;1.90;;;;;;;;;;5035715;28;20029;-75
2023/08/26 11:19:07;;;;;;;5.70;1.88;;;;;;;;;;5017078;28;20036;-75
2023/08/26 11:21:38;;;;;;;3.03;1.85;;;;;;;;;;5034872;28;20029;-75
2023/08/26 11:24:04;;;;;;;4.03;1.98;;;;;;;;;;5034463;28;20030;-75
2023/08/26 11:26:29;;;;;;;3.95;1.70;;;;;;;;;;5029358;23;20397;-74
2023/08/26 11:28:59;;;;;;;4.32;1.80;;;;;;;;;;4996502;28;20105;-74
2023/08/26 11:31:24;;;;;;;3.05;1.92;;;;;;;;;;5012196;28;20056;-74
2023/08/26 11:33:51;;;;;;;5.63;2.25;;;;;;;;;;4995733;28;20026;-74
2023/08/26 11:36:22;;;;;;;2.75;2.00;;;;;;;;;;4995301;28;20037;-74
2023/08/26 11:38:47;;;;;;;2.75;2.03;;;;;;;;;;4995799;28;20057;-74
2023/08/26 11:41:13;;;;;;;6.32;2.08;;;;;;;;;;5013228;28;20073;-74
2023/08/26 11:43:38;;;;;;;4.15;1.70;;;;;;;;;;4995548;28;20022;-74
2023/08/26 11:46:04;;;;;;;5.38;1.30;;;;;;;;;;4995307;28;20480;-74
2023/08/26 11:48:33;;;;;;;2.22;1.50;;;;;;;;;;4996287;28;20064;-74
2023/08/26 11:51:03;;;;;;;5.82;1.60;;;;;;;;;;4995846;28;20040;-74
2023/08/26 11:53:28;;;;;;;3.20;1.77;;;;;;;;;;5013160;28;20057;-74
2023/08/26 11:55:54;;;;;;;2.20;1.40;;;;;;;;;;5013467;28;20046;-74
2023/08/26 11:58:20;;;;;;;1.73;1.33;;;;;;;;;;4995625;28;20033;-73
2023/08/26 12:00:45;;;;;;;1.77;1.35;;;;;;;;;;4995360;28;20104;-72
2023/08/26 12:03:10;;;;;;;3.83;1.60;;;;;;;;;;5013291;28;20044;-72
2023/08/26 12:05:44;;;;;;;4.05;1.63;;;;;;;;;;4994774;28;20111;-72
2023/08/26 12:08:14;;;;;;;2.28;1.70;;;;;;;;;;5012789;28;20033;-71
2023/08/26 12:10:39;;;;;;;3.40;1.10;;;;;;;;;;4992281;28;20381;-74
2023/08/26 12:13:08;;;;;;;5.47;1.80;;;;;;;;;;5001027;28;20030;-73
2023/08/26 12:15:33;;;;;;;2.47;1.63;;;;;;;;;;5005945;28;20030;-73
2023/08/26 12:18:00;;;;;;;6.45;1.58;;;;;;;;;;5009717;28;20029;-73
2023/08/26 12:20:25;;;;;;;3.05;1.67;;;;;;;;;;4995267;28;20029;-73
2023/08/26 12:22:55;;;;;;;2.63;1.70;;;;;;;;;;5020914;28;20026;-73
2023/08/26 12:25:26;;;;;;;6.25;1.70;;;;;;;;;;4998104;28;20545;-73
2023/08/26 12:28:15;;;;;;;2.60;1.77;;;;;;;;;;4994807;28;20121;-73
2023/08/26 12:30:42;;;;;;;2.53;1.50;;;;;;;;;;4994766;28;20033;-74
2023/08/26 12:33:08;;;;;;;1.67;1.42;;;;;;;;;;4991532;28;20048;-74
2023/08/26 12:35:34;;;;;;;2.88;1.30;;;;;;;;;;4990935;28;20198;-74
2023/08/26 12:38:02;;;;;;;3.67;1.60;;;;;;;;;;4994790;28;20313;-73
2023/08/26 12:40:29;;;;;;;4.82;1.83;;;;;;;;;;4994891;28;20026;-73
2023/08/26 12:42:55;;;;;;;3.05;1.77;;;;;;;;;;5005206;28;20104;-73
2023/08/26 12:45:20;;;;;;;3.40;1.88;;;;;;;;;;5011216;28;20052;-74
2023/08/26 12:47:45;;;;;;;2.17;1.40;;;;;;;;;;5012159;28;20025;-74
2023/08/26 12:50:11;;;;;;;2.55;1.77;;;;;;;;;;5011666;28;20052;-74
2023/08/26 12:52:36;;;;;;;6.10;1.40;;;;;;;;;;4994982;28;20372;-74
2023/08/26 12:55:04;;;;;;;4.20;1.60;;;;;;;;;;5012207;28;20540;-74
2023/08/26 12:57:29;;;;;;;3.80;1.70;;;;;;;;;;5013200;28;20029;-73
2023/08/26 12:59:54;;;;;;;2.85;1.58;;;;;;;;;;5015925;28;20025;-74
2023/08/26 13:02:20;;;;;;;1.40;1.30;;;;;;;;;;5016093;28;20030;-74
2023/08/26 13:04:45;;;;;;;2.47;1.38;;;;;;;;;;5015289;28;20022;-74
2023/08/26 13:07:10;;;;;;;1.90;1.45;;;;;;;;;;5016344;28;20022;-74
2023/08/26 13:09:36;;;;;;;2.35;1.45;;;;;;;;;;5015986;28;20022;-74
2023/08/26 13:12:01;;;;;;;4.47;1.50;;;;;;;;;;5015649;28;20028;-73
2023/08/26 13:14:27;;;;;;;2.17;1.45;;;;;;;;;;5015407;28;20460;-74
2023/08/26 13:16:53;;;;;;;2.75;1.50;;;;;;;;;;5014688;28;20029;-74
2023/08/26 13:19:18;;;;;;;3.63;1.50;;;;;;;;;;4998168;28;20480;-74
2023/08/26 13:21:44;;;;;;;2.55;1.35;;;;;;;;;;4997910;28;20124;-74
2023/08/26 13:24:09;;;;;;;4.15;1.75;;;;;;;;;;4997905;28;20204;-74
2023/08/26 13:26:34;;;;;;;1.67;1.17;;;;;;;;;;5013932;28;20032;-74
2023/08/26 13:31:36;;;;;;;3.80;1.30;;;;;;;;;;5110383;27;20125;-73
2023/08/26 14:11:13;;;;;;;3.25;2.53;;;;;;;;;;5117514;27;20358;-72
2023/08/26 14:20:59;;;;;;;3.20;1.95;;;;;;;;;;5109966;27;20340;-73
2023/08/26 14:23:24;;;;;;;7.30;2.60;;;;;;;;;;5109946;28;20455;-73
2023/08/26 14:25:49;;;;;;;6.05;1.80;;;;;;;;;;5110220;28;20031;-74
2023/08/26 14:28:14;;;;;;;3.25;1.70;;;;;;;;;;5110088;28;20435;-72
2023/08/26 14:30:40;;;;;;;9.20;2.95;;;;;;;;;;5109308;28;20065;-73
2023/08/26 14:33:05;;;;;;;4.32;2.03;;;;;;;;;;5110159;28;20053;-73
2023/08/26 14:35:30;;;;;;;3.22;1.90;;;;;;;;;;5091690;28;20047;-73
2023/08/26 14:37:56;;;;;;;13.85;2.38;;;;;;;;;;5108859;28;20051;-73
2023/08/26 14:40:21;;;;;;;5.53;1.90;;;;;;;;;;5108657;28;20028;-73
2023/08/26 14:42:47;;;;;;;9.50;3.30;;;;;;;;;;5109421;28;20099;-74
2023/08/26 14:45:12;;;;;;;6.55;2.70;;;;;;;;;;5101168;28;20023;-73
2023/08/26 14:47:38;;;;;;;6.13;2.60;;;;;;;;;;5109703;28;20112;-72
2023/08/26 14:50:04;;;;;;;2.80;1.90;;;;;;;;;;5074158;28;20024;-71
2023/08/26 14:52:29;;;;;;;6.53;2.70;;;;;;;;;;5067374;28;20037;-71
2023/08/26 14:54:55;;;;;;;4.90;2.13;;;;;;;;;;5077439;28;20031;-72
2023/08/26 14:57:20;;;;;;;4.53;2.30;;;;;;;;;;5089684;28;20107;-71
2023/08/26 14:59:46;;;;;;;4.55;2.08;;;;;;;;;;5088876;28;20028;-71
2023/08/26 15:02:13;;;;;;;6.13;2.20;;;;;;;;;;5094178;28;20020;-71
2023/08/26 15:04:40;;;;;;;8.32;3.40;;;;;;;;;;5109241;28;20058;-71
2023/08/26 15:07:07;;;;;;;3.92;2.08;;;;;;;;;;5109506;28;20051;-71
2023/08/26 15:09:36;;;;;;;5.50;2.25;;;;;;;;;;5109671;28;20020;-71
2023/08/26 15:12:02;;;;;;;4.57;2.47;;;;;;;;;;5108182;28;20069;-71
2023/08/26 15:14:27;;;;;;;9.52;2.35;;;;;;;;;;5108088;28;20024;-71
2023/08/26 15:16:53;;;;;;;4.22;2.28;;;;;;;;;;5108232;28;20055;-71
2023/08/26 15:19:18;;;;;;;6.68;2.30;;;;;;;;;;5107611;28;20028;-73
2023/08/26 15:21:43;;;;;;;3.50;2.25;;;;;;;;;;5109364;28;20183;-71